createdAt,value
2022-11-12T00:04:09.501Z,6.32
2022-11-12T00:09:33.520Z,4.88
2022-11-12T00:14:54.677Z,5.32
2022-11-12T00:20:16.044Z,5.15
2022-11-12T00:25:37.679Z,4.93
2022-11-12T00:30:58.638Z,4.65
2022-11-12T00:36:20.030Z,4.75
2022-11-12T00:41:41.260Z,4.53
2022-11-12T00:47:02.716Z,4.32
2022-11-12T00:52:24.381Z,5.18
2022-11-12T00:57:45.617Z,4.72
2022-11-12T01:03:06.689Z,5.25
2022-11-12T01:08:29.854Z,5.25
2022-11-12T01:14:02.652Z,4.72
2022-11-12T01:19:23.391Z,5.10
2022-11-12T01:24:44.837Z,5.00
2022-11-12T01:30:07.569Z,5.25
2022-11-12T01:35:28.586Z,4.90
2022-11-12T01:40:49.483Z,4.80
2022-11-12T01:46:21.789Z,5.43
2022-11-12T01:51:47.985Z,4.50
2022-11-12T01:57:11.070Z,4.15
2022-11-12T02:02:35.873Z,5.10
2022-11-12T02:07:59.013Z,4.75
2022-11-12T02:13:38.973Z,5.38
2022-11-12T02:19:00.151Z,4.72
2022-11-12T02:24:21.153Z,4.50
2022-11-12T02:29:48.181Z,5.15
2022-11-12T02:35:09.747Z,5.90
2022-11-12T02:40:30.823Z,5.18
2022-11-12T02:45:51.829Z,5.20
2022-11-12T02:51:14.854Z,5.05
2022-11-12T02:56:53.166Z,5.20
2022-11-12T03:02:14.404Z,5.10
2022-11-12T03:07:35.408Z,5.30
2022-11-12T03:12:58.991Z,5.68
2022-11-12T03:18:23.632Z,5.97
2022-11-12T03:23:45.216Z,5.57
2022-11-12T03:29:06.470Z,6.55
2022-11-12T03:34:27.305Z,6.35
2022-11-12T03:39:48.481Z,5.82
2022-11-12T03:45:09.467Z,6.10
2022-11-12T03:50:30.758Z,6.25
2022-11-12T03:55:52.136Z,6.40
2022-11-12T04:01:13.801Z,6.50
2022-11-12T04:06:53.524Z,6.00
2022-11-12T04:12:33.012Z,6.78
2022-11-12T04:18:13.596Z,6.63
2022-11-12T04:23:34.476Z,7.18
2022-11-12T04:29:13.672Z,6.55
2022-11-12T04:34:35.007Z,6.38
2022-11-12T04:40:16.137Z,10.63
2022-11-12T04:45:38.325Z,29.52
2022-11-12T04:51:01.485Z,22.38
2022-11-12T04:56:22.643Z,12.53
2022-11-12T05:01:45.875Z,6.93
2022-11-12T05:07:07.106Z,7.45
2022-11-12T05:12:28.315Z,20.55
2022-11-12T05:17:49.566Z,20.63
2022-11-12T05:23:13.946Z,12.65
2022-11-12T05:28:35.261Z,10.35
2022-11-12T05:33:56.206Z,10.48
2022-11-12T05:39:17.410Z,13.60
2022-11-12T05:44:38.394Z,9.85
2022-11-12T05:49:59.412Z,7.30
2022-11-12T05:55:20.214Z,9.20
2022-11-12T06:00:41.697Z,8.98
2022-11-12T06:06:02.774Z,12.68
2022-11-12T06:11:24.076Z,11.73
2022-11-12T06:16:45.313Z,9.93
2022-11-12T06:22:06.414Z,9.20
2022-11-12T06:27:29.284Z,8.07
2022-11-12T06:32:50.932Z,9.23
2022-11-12T06:38:12.089Z,8.50
2022-11-12T06:43:34.539Z,8.45
2022-11-12T06:48:55.423Z,20.55
2022-11-12T06:54:16.381Z,17.55
2022-11-12T06:59:37.234Z,9.27
2022-11-12T07:04:58.062Z,8.55
2022-11-12T07:10:19.164Z,7.90
2022-11-12T07:15:40.497Z,9.60
2022-11-12T07:21:09.923Z,7.85
2022-11-12T07:26:31.864Z,8.50
2022-11-12T07:31:53.031Z,7.90
2022-11-12T07:37:14.654Z,18.60
2022-11-12T07:42:35.914Z,14.95
2022-11-12T07:48:02.158Z,12.02
2022-11-12T07:53:23.421Z,11.63
2022-11-12T07:58:45.572Z,14.75
2022-11-12T08:04:09.446Z,16.80
2022-11-12T08:14:52.189Z,21.67
2022-11-12T08:20:13.602Z,16.67
2022-11-12T08:25:34.699Z,14.35
2022-11-12T08:30:56.910Z,16.13
2022-11-12T08:36:19.206Z,15.18
2022-11-12T08:41:40.267Z,12.48
2022-11-12T08:47:01.299Z,9.82
2022-11-12T08:52:26.227Z,11.38
2022-11-12T08:57:49.118Z,11.88
2022-11-12T09:03:21.862Z,12.27
2022-11-12T09:08:43.805Z,12.10
2022-11-12T09:14:26.988Z,9.73
2022-11-12T09:19:48.233Z,9.70
2022-11-12T09:25:09.391Z,26.13
2022-11-12T09:30:39.955Z,25.77
2022-11-12T09:36:06.262Z,14.83
2022-11-12T09:41:35.873Z,12.38
2022-11-12T09:47:39.378Z,12.48
2022-11-12T09:53:44.903Z,10.32
2022-11-12T09:59:14.983Z,10.15
2022-11-12T10:05:02.323Z,12.77
2022-11-12T10:10:45.072Z,10.90
2022-11-12T10:16:45.764Z,9.68
2022-11-12T10:22:27.150Z,13.13
2022-11-12T10:27:49.502Z,15.70
2022-11-12T10:33:15.208Z,10.65
2022-11-12T10:38:37.186Z,10.88
2022-11-12T10:44:02.267Z,10.00
2022-11-12T11:02:29.167Z,9.40
2022-11-12T12:46:54.161Z,16.70
2022-11-12T12:53:02.919Z,13.35
2022-11-12T12:58:44.469Z,14.45
2022-11-12T13:04:47.894Z,18.60
2022-11-12T13:10:52.687Z,22.20
2022-11-12T13:17:40.656Z,21.52
2022-11-12T13:23:12.818Z,14.73
2022-11-12T13:34:32.306Z,10.32
2022-11-12T13:39:54.369Z,11.55
2022-11-12T13:45:19.838Z,17.43
2022-11-12T13:50:41.366Z,15.93
2022-11-12T13:56:03.059Z,11.77
2022-11-12T14:01:25.514Z,9.55
2022-11-12T14:06:51.292Z,7.90
2022-11-12T14:12:21.575Z,10.57
2022-11-12T14:18:19.616Z,9.88
2022-11-12T14:23:41.750Z,9.32
2022-11-12T14:29:10.132Z,24.43
2022-11-12T14:34:33.292Z,17.42
2022-11-12T14:39:54.647Z,17.25
2022-11-12T14:45:24.362Z,19.05
2022-11-12T14:51:06.267Z,19.35
2022-11-12T14:56:59.747Z,23.88
2022-11-12T15:03:32.884Z,32.90
2022-11-12T15:15:24.307Z,25.85
2022-11-12T15:20:46.581Z,34.40
2022-11-12T15:26:55.035Z,42.37
2022-11-12T15:33:17.511Z,49.17
2022-11-12T15:51:15.968Z,34.22
2022-11-12T15:56:36.863Z,34.25
2022-11-12T16:01:59.490Z,20.45
2022-11-12T16:07:20.534Z,14.23
2022-11-12T16:12:42.785Z,24.88
2022-11-12T16:18:03.710Z,20.17
2022-11-12T16:23:25.068Z,25.45
2022-11-12T16:28:52.164Z,18.45
2022-11-12T16:34:13.040Z,17.02
2022-11-12T16:39:34.062Z,19.63
2022-11-12T16:44:54.997Z,22.75
2022-11-12T16:50:18.400Z,29.38
2022-11-12T16:55:39.725Z,36.63
2022-11-12T17:01:02.284Z,28.67
2022-11-12T17:06:31.975Z,24.33
2022-11-12T17:11:53.058Z,28.73
2022-11-12T17:17:14.264Z,26.33
2022-11-12T17:22:35.767Z,25.48
2022-11-12T17:27:56.649Z,23.77
2022-11-12T17:33:17.569Z,26.27
2022-11-12T17:38:38.619Z,20.13
2022-11-12T17:44:00.615Z,18.42
2022-11-12T17:49:21.829Z,22.38
2022-11-12T17:54:42.699Z,26.73
2022-11-12T18:00:04.519Z,27.02
2022-11-12T18:05:27.618Z,22.25
2022-11-12T18:10:58.732Z,25.83
2022-11-12T18:16:26.129Z,29.65
2022-11-12T18:21:57.797Z,25.08
2022-11-12T18:27:20.320Z,27.30
2022-11-12T18:32:47.275Z,33.40
2022-11-12T18:38:14.370Z,23.40
2022-11-12T18:43:56.132Z,25.02
2022-11-12T18:54:43.050Z,38.42
2022-11-12T19:00:04.831Z,39.85
2022-11-12T19:05:26.018Z,60.20
2022-11-12T19:10:46.806Z,50.85
2022-11-12T19:16:13.411Z,53.45
2022-11-12T19:21:38.534Z,69.05
2022-11-12T19:27:00.165Z,65.50
2022-11-12T19:32:22.766Z,48.78
2022-11-12T19:37:45.040Z,35.10
2022-11-12T19:43:07.138Z,30.65
2022-11-12T19:48:28.564Z,33.67
2022-11-12T19:53:51.092Z,32.42
2022-11-12T19:59:17.787Z,31.67
2022-11-12T20:04:38.659Z,31.52
2022-11-12T20:10:01.216Z,55.83
2022-11-12T20:15:22.197Z,48.53
2022-11-12T20:20:52.617Z,43.17
2022-11-12T20:26:15.222Z,43.95
2022-11-12T20:31:38.152Z,60.37
2022-11-12T20:36:59.294Z,45.35
2022-11-12T20:42:20.566Z,71.50
2022-11-12T20:47:42.313Z,66.90
2022-11-12T20:53:03.556Z,52.70
2022-11-12T20:58:25.009Z,65.25
2022-11-12T21:03:46.876Z,63.90
2022-11-12T21:09:08.137Z,75.75
2022-11-12T21:14:29.134Z,60.72
2022-11-12T21:19:50.278Z,41.70
2022-11-12T21:25:17.887Z,37.85
2022-11-12T21:30:44.131Z,38.92
2022-11-12T21:36:16.823Z,34.58
2022-11-12T21:41:37.725Z,33.08
2022-11-12T21:46:58.964Z,43.65
2022-11-12T21:52:20.422Z,36.42
2022-11-12T21:57:41.470Z,39.45
2022-11-12T22:03:02.616Z,43.30
2022-11-12T22:08:23.557Z,47.72
2022-11-12T22:13:45.079Z,38.08
2022-11-12T22:19:06.414Z,35.03
2022-11-12T22:24:27.522Z,38.08
2022-11-12T22:29:48.843Z,39.22
2022-11-12T22:35:11.692Z,42.88
2022-11-12T22:40:32.611Z,41.17
2022-11-12T22:45:53.581Z,42.00
2022-11-12T22:51:18.631Z,44.63
2022-11-12T22:56:42.592Z,46.13
2022-11-12T23:02:08.015Z,41.03
2022-11-12T23:07:29.260Z,34.50
2022-11-12T23:12:50.453Z,26.58
2022-11-12T23:18:11.879Z,24.27
2022-11-12T23:23:33.747Z,24.50
2022-11-12T23:28:56.031Z,31.98
2022-11-12T23:34:17.773Z,24.88
2022-11-12T23:39:39.344Z,22.15
2022-11-12T23:45:01.276Z,21.08
2022-11-12T23:50:22.489Z,19.95
2022-11-12T23:55:44.389Z,21.70
